Time;durP1;ratioP1;P1;durP2;ratioP2;P2;SDS_P1;SDS_P2;PMS_P1;PMS_P2;Temp;Humidity;BMP_temperature;BMP_pressure;BME280_temperature;BME280_humidity;BME280_pressure;Samples;Min_cycle;Max_cycle;Signal;HPM_P1;HPM_P2
2022/06/22 00:02:28;;;;;;;9.57;6.47;;;17.30;63.10;;;;;;5082702;28;20200;-86
2022/06/22 00:05:16;;;;;;;10.75;6.75;;;17.30;63.60;;;;;;5073229;28;20157;-86
2022/06/22 00:07:49;;;;;;;7.80;5.68;;;17.20;64.00;;;;;;5052956;28;20201;-86
2022/06/22 00:10:39;;;;;;;6.88;6.28;;;17.20;64.40;;;;;;5073290;28;20157;-87
2022/06/22 00:13:15;;;;;;;8.20;6.38;;;17.20;64.10;;;;;;5077334;28;20192;-87
2022/06/22 00:15:52;;;;;;;7.50;6.60;;;17.20;64.80;;;;;;5078493;28;20212;-86
2022/06/22 00:18:31;;;;;;;8.40;6.07;;;17.20;65.20;;;;;;5079188;28;20218;-86
2022/06/22 00:21:04;;;;;;;8.52;6.70;;;17.10;65.20;;;;;;5071598;28;20331;-86
2022/06/22 00:23:30;;;;;;;6.93;6.22;;;17.10;64.50;;;;;;5066980;28;20172;-86
2022/06/22 00:26:31;;;;;;;10.83;7.07;;;17.20;64.40;;;;;;5058891;28;20209;-86
2022/06/22 00:29:09;;;;;;;9.32;6.82;;;17.10;64.40;;;;;;5041677;28;20725;-86
2022/06/22 00:31:35;;;;;;;12.35;6.85;;;17.10;64.30;;;;;;5057739;28;20227;-86
2022/06/22 00:34:10;;;;;;;8.65;6.05;;;17.00;64.70;;;;;;5056134;28;20201;-86
2022/06/22 00:36:57;;;;;;;8.63;7.05;;;17.00;64.70;;;;;;5066983;28;20212;-87
2022/06/22 00:39:25;;;;;;;9.77;7.00;;;16.90;65.90;;;;;;5074580;28;20193;-87
2022/06/22 00:42:15;;;;;;;10.85;6.20;;;16.80;66.60;;;;;;5075696;28;20241;-87
2022/06/22 00:44:44;;;;;;;11.75;6.47;;;16.80;66.70;;;;;;5075684;28;20161;-86
2022/06/22 00:47:24;;;;;;;6.70;6.10;;;16.70;66.90;;;;;;5075490;28;20213;-87
2022/06/22 00:49:55;;;;;;;9.82;7.70;;;16.80;67.10;;;;;;5075338;28;20168;-86
2022/06/22 00:52:35;;;;;;;9.23;7.20;;;16.70;67.00;;;;;;5044463;28;20185;-86
2022/06/22 00:55:05;;;;;;;11.05;6.85;;;16.70;67.00;;;;;;5055581;28;20177;-86
2022/06/22 00:57:36;;;;;;;11.98;7.68;;;16.80;67.00;;;;;;5056654;28;20272;-86
2022/06/22 01:00:14;;;;;;;8.60;6.63;;;16.70;67.40;;;;;;5062943;28;20173;-87
2022/06/22 01:02:50;;;;;;;11.23;7.95;;;16.70;67.70;;;;;;5061233;28;20235;-86
2022/06/22 01:05:36;;;;;;;9.07;7.93;;;16.60;68.00;;;;;;5055066;28;20248;-87
2022/06/22 01:08:15;;;;;;;11.80;7.63;;;16.70;67.50;;;;;;5051722;28;20181;-87
2022/06/22 01:11:06;;;;;;;9.38;8.18;;;16.70;67.30;;;;;;5034839;28;20645;-86
2022/06/22 01:13:41;;;;;;;8.45;7.65;;;16.60;67.80;;;;;;5038248;28;20247;-86
2022/06/22 01:16:25;;;;;;;10.55;7.47;;;16.60;67.80;;;;;;5054733;28;20215;-86
2022/06/22 01:18:59;;;;;;;10.55;7.75;;;16.50;68.30;;;;;;5049237;28;20177;-86
2022/06/22 01:21:37;;;;;;;9.27;7.70;;;16.50;68.70;;;;;;5057839;28;20167;-86
2022/06/22 01:24:34;;;;;;;9.23;7.10;;;16.50;69.00;;;;;;5055368;28;20185;-86
2022/06/22 01:27:23;;;;;;;8.00;6.88;;;16.50;69.10;;;;;;5054970;28;20572;-86
2022/06/22 01:29:56;;;;;;;10.63;7.13;;;16.50;69.30;;;;;;5059904;28;20185;-86
2022/06/22 01:32:35;;;;;;;12.57;8.18;;;16.40;69.80;;;;;;5063974;28;20191;-85
2022/06/22 01:35:22;;;;;;;10.80;8.45;;;16.40;70.10;;;;;;5063038;28;20207;-86
2022/06/22 01:37:48;;;;;;;9.50;7.80;;;16.40;70.10;;;;;;5069872;28;20224;-86
2022/06/22 01:40:25;;;;;;;10.18;8.10;;;16.40;70.40;;;;;;5073844;28;20196;-86
2022/06/22 01:43:09;;;;;;;12.82;8.27;;;16.40;70.90;;;;;;5068436;28;20184;-85
2022/06/22 01:45:49;;;;;;;9.65;6.70;;;16.30;71.40;;;;;;5062999;28;20275;-86
2022/06/22 01:48:48;;;;;;;8.98;7.85;;;16.40;71.50;;;;;;5056896;28;20169;-86
2022/06/22 01:51:46;;;;;;;10.75;7.93;;;16.40;71.30;;;;;;5063609;28;20161;-86
2022/06/22 01:54:23;;;;;;;8.85;7.68;;;16.30;71.80;;;;;;5053707;28;20272;-86
2022/06/22 01:56:51;;;;;;;9.13;8.23;;;16.30;72.30;;;;;;5054006;28;20216;-86
2022/06/22 01:59:39;;;;;;;11.15;8.60;;;16.30;72.30;;;;;;5054322;28;20452;-86
2022/06/22 02:02:25;;;;;;;14.02;10.02;;;16.20;72.50;;;;;;5055402;28;20268;-86
2022/06/22 02:05:04;;;;;;;15.60;8.35;;;16.20;72.90;;;;;;5071872;28;20169;-86
2022/06/22 02:07:47;;;;;;;10.32;9.30;;;16.20;73.20;;;;;;5058915;28;20192;-86
2022/06/22 02:10:16;;;;;;;9.77;8.40;;;16.20;73.50;;;;;;5037702;28;20186;-87
2022/06/22 02:12:56;;;;;;;10.15;9.02;;;16.10;74.00;;;;;;5055023;28;20637;-86
2022/06/22 02:15:45;;;;;;;10.18;8.30;;;16.20;73.90;;;;;;5055462;28;20208;-87
2022/06/22 02:18:15;;;;;;;12.20;9.52;;;16.10;74.20;;;;;;5059082;28;20173;-86
2022/06/22 02:20:42;;;;;;;15.15;9.60;;;16.10;74.80;;;;;;5042561;28;20186;-87
2022/06/22 02:23:30;;;;;;;12.25;10.00;;;16.10;74.40;;;;;;5043189;28;20185;-86
2022/06/22 02:26:10;;;;;;;15.88;9.45;;;16.10;74.50;;;;;;5048638;28;20217;-86
2022/06/22 02:28:36;;;;;;;16.67;10.15;;;16.00;74.40;;;;;;5052471;28;20185;-86
2022/06/22 02:31:03;;;;;;;14.00;10.13;;;16.00;75.10;;;;;;5062845;28;20181;-86
2022/06/22 02:33:32;;;;;;;14.18;9.48;;;16.00;75.50;;;;;;5072523;28;20262;-86
2022/06/22 02:35:59;;;;;;;14.45;10.07;;;15.90;75.70;;;;;;5064575;28;20747;-86
2022/06/22 02:38:26;;;;;;;11.88;10.77;;;16.00;75.60;;;;;;5061859;28;20280;-86
2022/06/22 02:46:33;;;;;;;12.82;10.00;;;15.90;76.00;;;;;;5054891;28;20216;-86
2022/06/22 02:49:06;;;;;;;13.00;8.95;;;15.90;76.20;;;;;;5053406;28;20192;-86
2022/06/22 02:51:37;;;;;;;15.45;9.85;;;15.80;76.60;;;;;;5055559;28;20181;-86
2022/06/22 02:54:06;;;;;;;11.77;10.35;;;15.80;76.90;;;;;;5062121;28;20185;-87
2022/06/22 02:56:37;;;;;;;13.65;11.07;;;15.70;77.20;;;;;;5074985;28;20217;-86
2022/06/22 02:59:03;;;;;;;16.92;10.57;;;15.80;77.40;;;;;;5073116;28;20162;-85
2022/06/22 03:01:32;;;;;;;21.05;9.88;;;15.80;77.20;;;;;;5077542;28;20189;-85
2022/06/22 03:04:03;;;;;;;14.10;10.55;;;15.80;77.30;;;;;;5084712;22;20570;-86
2022/06/22 03:06:34;;;;;;;19.75;11.23;;;15.80;77.70;;;;;;5045837;28;20178;-87
2022/06/22 03:09:03;;;;;;;13.18;11.35;;;15.70;78.00;;;;;;5048438;28;20724;-88
2022/06/22 03:11:29;;;;;;;12.95;10.88;;;15.80;78.10;;;;;;5048003;28;20665;-88
2022/06/22 03:14:20;;;;;;;14.50;12.77;;;15.70;78.10;;;;;;5070570;28;20668;-88
2022/06/22 03:16:53;;;;;;;15.38;10.80;;;15.70;78.30;;;;;;5038261;28;20210;-88
2022/06/22 03:19:43;;;;;;;14.25;11.30;;;15.70;78.40;;;;;;5046695;28;20260;-88
2022/06/22 03:22:16;;;;;;;13.60;11.05;;;15.70;78.40;;;;;;5038960;28;20260;-88
2022/06/22 03:25:05;;;;;;;15.52;12.35;;;15.70;78.10;;;;;;5044116;28;20274;-88
2022/06/22 03:27:35;;;;;;;16.10;11.10;;;15.70;78.10;;;;;;5046480;28;20311;-88
2022/06/22 03:30:16;;;;;;;16.33;11.82;;;15.70;78.30;;;;;;5047058;28;20166;-88
2022/06/22 03:33:03;;;;;;;16.33;12.48;;;15.60;78.80;;;;;;5049280;28;20158;-88
2022/06/22 03:35:40;;;;;;;14.60;12.75;;;15.60;80.10;;;;;;5069777;28;20204;-88
2022/06/22 03:38:08;;;;;;;13.30;11.93;;;15.60;79.70;;;;;;5042659;28;20232;-88
2022/06/22 03:40:47;;;;;;;16.25;11.50;;;15.60;79.60;;;;;;5040805;28;20176;-88
2022/06/22 03:43:27;;;;;;;18.73;12.85;;;15.70;79.20;;;;;;5051921;28;20213;-88
2022/06/22 03:46:09;;;;;;;13.63;12.23;;;15.70;79.20;;;;;;5045532;28;20228;-87
2022/06/22 03:48:43;;;;;;;15.32;11.27;;;15.80;78.90;;;;;;5055209;28;20272;-86
2022/06/22 03:51:17;;;;;;;18.73;13.20;;;15.70;79.00;;;;;;5049801;28;20614;-87
2022/06/22 03:53:56;;;;;;;14.68;11.63;;;15.70;79.10;;;;;;5049144;28;20174;-88
2022/06/22 03:56:28;;;;;;;15.13;11.70;;;15.70;79.10;;;;;;5063706;28;20212;-87
2022/06/22 03:58:54;;;;;;;12.90;11.50;;;15.70;78.90;;;;;;5053379;28;20194;-86
2022/06/22 04:01:22;;;;;;;14.95;12.00;;;15.80;78.50;;;;;;5051570;28;20668;-87
2022/06/22 04:03:50;;;;;;;13.88;10.98;;;15.80;78.50;;;;;;5038934;28;20580;-87
2022/06/22 04:06:32;;;;;;;13.52;11.88;;;15.80;78.70;;;;;;5044570;28;20657;-86
2022/06/22 04:09:00;;;;;;;15.85;12.32;;;15.70;79.30;;;;;;5038612;28;20178;-87
2022/06/22 04:11:47;;;;;;;14.38;11.60;;;15.80;79.40;;;;;;5055310;28;20180;-88
2022/06/22 04:14:38;;;;;;;14.20;12.55;;;15.90;78.70;;;;;;5045712;28;20438;-87
2022/06/22 04:17:10;;;;;;;15.98;12.02;;;15.90;78.60;;;;;;5037912;28;20189;-87
2022/06/22 04:20:01;;;;;;;15.10;11.75;;;15.90;78.70;;;;;;5050753;28;20170;-88
2022/06/22 04:22:31;;;;;;;17.15;12.30;;;15.90;78.80;;;;;;5023545;28;20838;-87
2022/06/22 04:25:22;;;;;;;16.20;12.30;;;15.90;79.00;;;;;;5041488;28;20204;-87
2022/06/22 04:27:52;;;;;;;15.75;12.55;;;15.90;79.20;;;;;;5030206;28;20595;-88
2022/06/22 04:30:28;;;;;;;17.10;12.30;;;15.90;78.90;;;;;;5045406;28;20538;-88
2022/06/22 04:33:21;;;;;;;13.65;11.95;;;16.00;78.30;;;;;;5035021;28;20180;-88
2022/06/22 04:35:50;;;;;;;17.65;14.10;;;16.10;78.20;;;;;;5037804;28;20639;-87
2022/06/22 04:38:32;;;;;;;17.33;12.52;;;16.00;78.20;;;;;;5041293;28;20189;-87
2022/06/22 04:41:11;;;;;;;18.70;12.40;;;16.10;78.40;;;;;;5035002;28;20185;-86
2022/06/22 04:43:37;;;;;;;16.83;14.60;;;16.10;78.40;;;;;;5033666;28;20169;-87
2022/06/22 04:46:07;;;;;;;17.52;11.93;;;16.20;78.30;;;;;;5041321;28;20546;-87
2022/06/22 04:48:40;;;;;;;17.45;12.85;;;16.10;78.80;;;;;;5042035;28;20182;-87
2022/06/22 04:51:12;;;;;;;16.88;12.75;;;16.20;78.90;;;;;;5044709;28;20549;-88
2022/06/22 04:53:50;;;;;;;17.95;11.73;;;16.30;78.40;;;;;;5050625;28;20271;-87
2022/06/22 04:56:25;;;;;;;24.90;12.45;;;16.30;78.10;;;;;;5048462;28;20251;-88
2022/06/22 04:58:57;;;;;;;12.75;11.20;;;16.40;78.10;;;;;;5033926;28;20287;-88
2022/06/22 05:01:26;;;;;;;21.45;13.43;;;16.40;78.10;;;;;;5041760;28;20174;-88
2022/06/22 05:04:01;;;;;;;14.88;12.45;;;16.50;78.10;;;;;;5041019;28;20193;-88
2022/06/22 05:06:40;;;;;;;17.20;13.10;;;16.60;77.60;;;;;;5055180;28;20177;-88
2022/06/22 05:09:20;;;;;;;15.80;13.52;;;16.70;76.90;;;;;;5035101;28;20656;-88
2022/06/22 05:11:48;;;;;;;14.48;12.02;;;16.80;76.30;;;;;;5035808;28;20225;-88
2022/06/22 05:14:22;;;;;;;14.13;11.40;;;16.90;76.00;;;;;;5047575;28;20684;-87
2022/06/22 05:17:06;;;;;;;14.65;12.45;;;17.00;75.50;;;;;;5034698;28;20212;-88
2022/06/22 05:19:53;;;;;;;15.70;11.18;;;17.20;75.20;;;;;;5041126;28;20676;-88
2022/06/22 05:22:19;;;;;;;14.60;10.00;;;17.60;73.60;;;;;;5032277;28;20231;-88
2022/06/22 05:24:51;;;;;;;14.87;10.43;;;18.20;72.70;;;;;;5036842;28;20630;-87
2022/06/22 05:27:23;;;;;;;16.17;8.57;;;18.80;69.80;;;;;;5025295;28;20657;-87
2022/06/22 05:29:52;;;;;;;10.00;8.55;;;19.50;68.20;;;;;;5040915;28;20185;-90
2022/06/22 05:32:24;;;;;;;11.37;7.90;;;20.50;64.10;;;;;;5048988;28;20174;-89
2022/06/22 05:34:53;;;;;;;10.60;8.53;;;21.30;60.70;;;;;;5045275;28;20489;-92
2022/06/22 05:37:31;;;;;;;10.53;6.70;;;22.00;57.00;;;;;;5033333;28;20480;-89
2022/06/22 05:39:57;;;;;;;8.10;7.30;;;22.80;55.20;;;;;;5040365;28;20504;-89
2022/06/22 05:42:24;;;;;;;9.50;8.20;;;23.30;52.70;;;;;;5043897;28;20445;-90
2022/06/22 05:44:52;;;;;;;8.27;6.77;;;23.40;51.00;;;;;;5038496;28;20456;-87
2022/06/22 05:47:31;;;;;;;9.67;6.63;;;23.30;51.00;;;;;;5043702;28;20935;-89
2022/06/22 05:50:11;;;;;;;8.70;7.57;;;23.00;51.30;;;;;;5043983;28;20425;-89
2022/06/22 05:52:40;;;;;;;11.63;8.27;;;22.60;52.90;;;;;;5049003;28;20453;-89
2022/06/22 05:55:25;;;;;;;9.93;7.13;;;22.60;52.50;;;;;;5045087;28;20463;-89
2022/06/22 05:58:29;;;;;;;10.83;8.60;;;22.40;53.30;;;;;;5040097;28;20416;-90
2022/06/22 06:00:57;;;;;;;7.70;6.97;;;22.40;53.70;;;;;;5033001;28;20462;-90
2022/06/22 06:03:33;;;;;;;7.80;7.00;;;22.60;53.90;;;;;;5033942;28;20417;-89
2022/06/22 06:06:10;;;;;;;9.03;8.13;;;22.70;53.10;;;;;;5046166;28;20459;-88
2022/06/22 06:09:06;;;;;;;12.70;7.80;;;22.60;52.50;;;;;;5026593;28;20539;-88
2022/06/22 06:11:44;;;;;;;11.93;7.70;;;22.60;52.90;;;;;;5018560;28;20408;-89
2022/06/22 06:14:26;;;;;;;15.27;8.30;;;22.70;52.60;;;;;;5037195;28;20445;-90
2022/06/22 06:16:58;;;;;;;13.23;8.30;;;22.70;52.00;;;;;;5038707;28;20964;-90
2022/06/22 06:19:31;;;;;;;10.20;7.70;;;22.40;53.30;;;;;;5033660;28;20427;-89
2022/06/22 06:22:00;;;;;;;10.87;8.10;;;22.50;53.50;;;;;;5044328;28;20453;-89
2022/06/22 06:27:38;;;;;;;16.20;8.20;;;22.90;51.50;;;;;;5034804;28;20416;-89
2022/06/22 06:30:19;;;;;;;23.53;7.80;;;22.90;50.80;;;;;;5033058;28;20778;-89
2022/06/22 06:33:00;;;;;;;11.47;7.30;;;22.80;51.80;;;;;;5034377;28;20413;-88
2022/06/22 06:35:30;;;;;;;14.63;7.00;;;22.70;51.30;;;;;;5046117;28;20523;-88
2022/06/22 06:37:59;;;;;;;11.13;7.43;;;22.80;51.80;;;;;;5051877;28;20420;-89
2022/06/22 06:40:40;;;;;;;9.00;6.37;;;22.90;51.70;;;;;;5045116;28;20439;-89
2022/06/22 06:43:24;;;;;;;12.07;8.33;;;23.10;51.40;;;;;;5021754;28;20416;-87
2022/06/22 06:45:52;;;;;;;13.37;6.83;;;23.40;50.10;;;;;;5026405;28;20499;-89
2022/06/22 06:48:24;;;;;;;10.17;7.47;;;23.30;49.50;;;;;;5028039;28;20475;-87
2022/06/22 06:50:53;;;;;;;10.53;6.83;;;23.20;49.60;;;;;;5027132;28;20475;-89
2022/06/22 06:53:32;;;;;;;16.17;7.83;;;23.30;50.00;;;;;;5017796;28;20870;-88
2022/06/22 06:56:27;;;;;;;8.07;7.23;;;23.20;49.80;;;;;;5022384;28;20480;-90
2022/06/22 06:59:00;;;;;;;8.40;7.43;;;23.00;50.80;;;;;;5040704;28;20622;-88
2022/06/22 07:01:31;;;;;;;8.77;6.67;;;23.00;50.90;;;;;;5052445;28;20479;-89
2022/06/22 07:04:08;;;;;;;13.40;8.30;;;22.90;50.70;;;;;;5058297;28;20417;-87
2022/06/22 07:06:35;;;;;;;10.40;8.00;;;22.80;50.60;;;;;;5059124;28;20436;-87
2022/06/22 07:09:40;;;;;;;9.30;7.10;;;22.50;51.60;;;;;;5038833;28;20405;-88
2022/06/22 07:12:31;;;;;;;12.53;7.53;;;22.20;52.90;;;;;;5018362;28;20443;-88
2022/06/22 07:15:00;;;;;;;10.37;6.80;;;22.20;52.90;;;;;;5021674;28;20447;-88
2022/06/22 07:17:27;;;;;;;8.47;7.53;;;22.20;53.90;;;;;;5028942;28;20588;-89
2022/06/22 07:20:01;;;;;;;8.80;6.77;;;22.10;52.60;;;;;;5036501;28;20512;-88
2022/06/22 07:22:35;;;;;;;10.20;7.60;;;22.00;52.30;;;;;;5038914;28;20393;-88
2022/06/22 07:25:01;;;;;;;11.27;7.67;;;21.90;52.30;;;;;;5035984;28;20435;-87
2022/06/22 07:27:33;;;;;;;9.40;6.73;;;21.80;52.60;;;;;;5036951;28;20419;-87
2022/06/22 07:30:47;;;;;;;13.30;8.60;;;21.60;53.10;;;;;;5034835;28;20201;-87
2022/06/22 07:33:31;;;;;;;11.77;7.23;;;21.40;54.10;;;;;;5030290;28;21167;-87
2022/06/22 07:36:23;;;;;;;11.10;7.90;;;21.30;54.70;;;;;;5034692;28;20468;-87
2022/06/22 07:38:57;;;;;;;8.10;7.30;;;21.20;55.00;;;;;;5034395;28;20436;-87
2022/06/22 07:41:28;;;;;;;14.70;8.20;;;21.20;55.30;;;;;;5034720;28;20407;-87
2022/06/22 07:44:05;;;;;;;8.43;7.50;;;21.30;55.20;;;;;;5034844;28;20409;-88
2022/06/22 07:46:43;;;;;;;9.57;7.70;;;21.40;54.30;;;;;;5018984;28;20412;-88
2022/06/22 07:49:27;;;;;;;8.53;7.63;;;21.30;54.60;;;;;;5034710;28;20511;-90
2022/06/22 07:51:56;;;;;;;13.90;8.63;;;21.40;53.90;;;;;;5034728;28;20427;-87
2022/06/22 07:54:50;;;;;;;11.80;7.93;;;21.30;53.90;;;;;;5035333;28;20435;-87
2022/06/22 07:57:42;;;;;;;7.40;6.70;;;21.30;54.20;;;;;;5029424;28;20456;-87
2022/06/22 08:00:08;;;;;;;12.30;7.57;;;21.30;54.10;;;;;;5044153;28;20959;-87
2022/06/22 08:02:39;;;;;;;12.50;7.37;;;21.30;54.10;;;;;;5014169;28;20509;-87
2022/06/22 08:05:14;;;;;;;9.47;7.77;;;21.30;54.20;;;;;;5013878;28;20473;-87
2022/06/22 08:08:05;;;;;;;9.50;6.57;;;21.40;53.50;;;;;;5013901;28;20409;-87
2022/06/22 08:10:47;;;;;;;11.07;7.40;;;21.40;53.00;;;;;;5014272;28;20586;-86
2022/06/22 08:13:30;;;;;;;7.80;6.60;;;21.40;52.20;;;;;;5016320;28;20504;-87
2022/06/22 08:16:09;;;;;;;13.37;6.40;;;21.40;52.20;;;;;;5014058;28;20467;-87
2022/06/22 08:18:35;;;;;;;7.70;6.73;;;21.40;51.90;;;;;;5015135;28;20421;-87
2022/06/22 08:21:01;;;;;;;12.33;7.90;;;21.30;51.80;;;;;;5014506;28;20925;-88
2022/06/22 08:23:42;;;;;;;11.33;6.87;;;21.30;52.40;;;;;;5015225;28;20413;-86
2022/06/22 08:26:24;;;;;;;6.87;5.60;;;21.30;52.40;;;;;;5015320;28;20182;-86
2022/06/22 08:28:50;;;;;;;10.43;8.03;;;21.30;52.10;;;;;;5014668;28;20488;-88
2022/06/22 08:31:17;;;;;;;8.10;5.97;;;21.30;52.20;;;;;;5014249;28;20428;-88
2022/06/22 08:33:57;;;;;;;9.70;6.47;;;21.20;52.20;;;;;;5014650;28;21094;-85
2022/06/22 08:36:38;;;;;;;7.93;6.60;;;21.40;52.30;;;;;;5014949;28;20539;-87
2022/06/22 08:39:15;;;;;;;7.50;5.80;;;21.50;51.70;;;;;;5014626;28;20520;-88
2022/06/22 08:42:05;;;;;;;8.47;5.70;;;21.60;51.90;;;;;;5021761;28;20420;-88
2022/06/22 08:44:54;;;;;;;12.43;5.80;;;21.60;51.40;;;;;;5034801;28;20449;-87
2022/06/22 08:47:42;;;;;;;6.53;5.93;;;21.70;49.50;;;;;;5032694;28;20794;-88
2022/06/22 08:50:39;;;;;;;9.93;4.87;;;21.80;49.40;;;;;;5033546;28;20566;-87
2022/06/22 08:53:30;;;;;;;7.60;4.67;;;21.80;48.90;;;;;;5033672;28;20428;-86
2022/06/22 08:56:17;;;;;;;13.60;4.60;;;21.80;49.30;;;;;;5034960;28;20452;-88
2022/06/22 08:59:20;;;;;;;5.30;4.47;;;21.80;49.10;;;;;;5033855;28;20484;-89
2022/06/22 09:01:54;;;;;;;8.37;6.30;;;21.90;48.90;;;;;;5030725;28;20413;-88
2022/06/22 09:04:38;;;;;;;8.63;4.87;;;21.90;49.20;;;;;;5035677;28;20459;-88
2022/06/22 09:07:15;;;;;;;6.60;4.70;;;21.90;49.50;;;;;;5033623;28;20440;-88
2022/06/22 09:10:26;;;;;;;5.97;4.10;;;22.00;48.80;;;;;;5035749;28;20438;-87
2022/06/22 09:13:01;;;;;;;7.73;3.60;;;22.10;47.80;;;;;;5034420;28;20428;-87
2022/06/22 09:15:35;;;;;;;6.67;5.13;;;22.10;46.70;;;;;;5033516;28;20444;-86
2022/06/22 09:18:29;;;;;;;7.20;4.23;;;22.10;47.10;;;;;;5033097;28;20406;-88
2022/06/22 09:21:28;;;;;;;6.20;4.10;;;22.20;47.10;;;;;;5035565;28;20397;-86
2022/06/22 09:24:09;;;;;;;8.37;5.37;;;22.20;47.20;;;;;;5018346;28;20446;-87
2022/06/22 09:27:13;;;;;;;16.57;4.87;;;22.30;47.50;;;;;;5036947;28;20923;-88
2022/06/22 09:29:56;;;;;;;8.73;5.40;;;22.30;47.60;;;;;;5045217;28;20489;-90
2022/06/22 09:32:31;;;;;;;5.47;4.97;;;22.50;47.50;;;;;;5047206;28;20421;-89
2022/06/22 09:35:26;;;;;;;6.93;5.03;;;22.50;47.60;;;;;;5038938;28;20448;-90
2022/06/22 09:38:06;;;;;;;6.20;4.80;;;22.50;47.60;;;;;;5036752;28;20421;-86
2022/06/22 09:40:55;;;;;;;13.00;5.50;;;22.30;47.00;;;;;;5034717;28;20407;-87
2022/06/22 09:43:50;;;;;;;4.80;4.30;;;22.40;45.80;;;;;;5034304;28;20397;-88
2022/06/22 09:46:22;;;;;;;9.00;5.53;;;22.40;46.30;;;;;;5051293;28;20420;-88
2022/06/22 09:49:00;;;;;;;10.37;5.20;;;22.50;46.60;;;;;;5052535;28;20428;-88
2022/06/22 09:51:39;;;;;;;7.47;4.83;;;22.60;46.40;;;;;;5035461;28;20393;-87
2022/06/22 09:57:13;;;;;;;8.80;5.57;;;22.60;47.00;;;;;;5035388;28;20463;-86
2022/06/22 09:59:53;;;;;;;14.47;5.97;;;22.60;47.10;;;;;;5023975;28;20467;-87
2022/06/22 10:03:03;;;;;;;7.93;5.43;;;22.10;48.00;;;;;;5015829;28;20556;-89
2022/06/22 10:05:59;;;;;;;12.87;6.20;;;22.00;48.50;;;;;;5017499;28;20465;-89
2022/06/22 10:08:43;;;;;;;6.30;5.53;;;22.00;49.00;;;;;;5034624;28;20417;-87
2022/06/22 10:11:47;;;;;;;9.70;4.33;;;22.00;48.80;;;;;;5021954;28;20436;-87
2022/06/22 10:14:21;;;;;;;9.33;4.83;;;22.10;47.80;;;;;;5032826;28;20453;-87
2022/06/22 10:17:09;;;;;;;8.10;4.73;;;22.50;46.20;;;;;;5030210;28;20457;-88
2022/06/22 10:19:54;;;;;;;5.47;4.07;;;22.70;45.60;;;;;;5016938;28;21116;-88
2022/06/22 10:22:26;;;;;;;7.13;5.30;;;22.80;44.90;;;;;;5017363;28;20416;-89
2022/06/22 10:25:19;;;;;;;7.90;4.37;;;22.90;45.20;;;;;;5015359;28;20441;-89
2022/06/22 10:28:22;;;;;;;4.37;3.47;;;23.00;43.10;;;;;;5012989;28;20772;-88
2022/06/22 10:31:06;;;;;;;4.93;3.23;;;23.00;43.10;;;;;;5013334;28;20409;-89
2022/06/22 10:33:51;;;;;;;4.53;3.17;;;23.20;41.60;;;;;;5013581;28;20413;-87
2022/06/22 10:36:17;;;;;;;9.87;5.50;;;23.30;41.20;;;;;;5020405;28;20460;-87
2022/06/22 10:38:48;;;;;;;7.27;5.30;;;23.40;42.90;;;;;;5041054;28;20427;-87
2022/06/22 10:47:53;;;;;;;4.67;3.87;;;23.50;41.10;;;;;;5016039;28;21166;-89
2022/06/22 10:50:24;;;;;;;4.77;3.70;;;23.50;40.70;;;;;;5033323;28;20423;-89
2022/06/22 10:53:18;;;;;;;7.40;4.73;;;23.60;40.30;;;;;;5033426;28;20426;-89
2022/06/22 10:56:05;;;;;;;6.80;3.03;;;23.30;39.10;;;;;;5029415;28;20999;-89
2022/06/22 10:58:43;;;;;;;5.37;3.57;;;23.40;39.80;;;;;;5026222;28;20547;-87
2022/06/22 11:01:28;;;;;;;4.00;3.60;;;23.50;40.80;;;;;;5022668;28;20574;-87
2022/06/22 11:04:09;;;;;;;5.77;4.40;;;23.60;41.00;;;;;;5022461;28;20439;-88
2022/06/22 11:07:13;;;;;;;5.93;3.40;;;23.80;40.70;;;;;;5033660;28;20436;-89
2022/06/22 11:09:51;;;;;;;8.00;3.30;;;23.80;40.60;;;;;;5034053;28;20428;-89
2022/06/22 11:12:47;;;;;;;5.33;3.70;;;23.70;37.70;;;;;;5035009;28;20412;-89
2022/06/22 11:15:51;;;;;;;6.93;4.10;;;23.90;39.40;;;;;;5054352;28;20438;-89
2022/06/22 11:18:37;;;;;;;4.30;3.67;;;23.30;40.30;;;;;;5024616;28;20427;-88
2022/06/22 11:21:16;;;;;;;7.03;4.40;;;23.10;41.50;;;;;;5032777;28;20403;-87
2022/06/22 11:24:03;;;;;;;5.20;3.10;;;23.40;41.60;;;;;;5043549;28;20416;-88
2022/06/22 11:33:02;;;;;;;3.10;2.83;;;23.90;38.00;;;;;;4997639;28;20432;-88
2022/06/22 11:35:52;;;;;;;4.63;3.20;;;24.20;36.60;;;;;;5043687;28;20435;-88
2022/06/22 11:38:31;;;;;;;5.93;3.47;;;24.20;38.20;;;;;;5044387;28;20495;-86
2022/06/22 11:41:22;;;;;;;8.13;3.20;;;24.20;38.40;;;;;;5050606;28;20422;-87
2022/06/22 11:44:13;;;;;;;5.30;3.50;;;24.00;37.30;;;;;;5043841;28;20484;-88
2022/06/22 11:46:54;;;;;;;6.90;3.40;;;24.10;37.30;;;;;;5038579;28;20516;-86
2022/06/22 11:49:57;;;;;;;3.37;2.93;;;24.30;37.80;;;;;;5039219;28;20423;-88
2022/06/22 11:52:50;;;;;;;5.03;2.83;;;24.30;36.10;;;;;;5042968;28;20416;-87
2022/06/22 11:55:32;;;;;;;3.03;2.70;;;24.30;36.20;;;;;;5048628;28;20436;-87
2022/06/22 11:58:36;;;;;;;9.53;3.50;;;24.40;36.20;;;;;;5056185;28;20437;-88
2022/06/22 12:01:36;;;;;;;6.87;3.03;;;24.50;36.20;;;;;;5039424;28;22140;-89
2022/06/22 12:04:26;;;;;;;4.80;3.37;;;24.50;36.00;;;;;;5040426;28;20447;-89
2022/06/22 12:07:17;;;;;;;6.23;3.03;;;24.50;36.10;;;;;;5052980;28;20440;-89
2022/06/22 12:10:04;;;;;;;3.17;2.33;;;24.60;35.70;;;;;;5042334;28;20424;-88
2022/06/22 12:12:46;;;;;;;5.60;2.87;;;24.70;33.10;;;;;;5044100;28;20781;-89
2022/06/22 12:15:34;;;;;;;2.57;2.37;;;24.80;33.10;;;;;;5020136;28;20445;-89
2022/06/22 12:18:23;;;;;;;4.30;2.03;;;24.90;33.20;;;;;;5033038;28;20443;-88
2022/06/22 12:21:08;;;;;;;4.70;2.90;;;25.00;34.20;;;;;;5036502;28;20455;-86
2022/06/22 12:24:04;;;;;;;7.30;3.10;;;25.00;33.40;;;;;;5036917;28;20415;-89
2022/06/22 12:26:58;;;;;;;5.30;3.20;;;25.00;32.00;;;;;;5038110;28;20416;-90
2022/06/22 12:30:13;;;;;;;4.13;2.70;;;25.00;32.30;;;;;;5035935;28;20419;-88
2022/06/22 12:32:46;;;;;;;9.10;3.53;;;25.00;33.10;;;;;;5004694;28;20469;-86
2022/06/22 12:35:20;;;;;;;3.80;2.87;;;25.00;34.60;;;;;;5017165;28;20440;-89
2022/06/22 12:38:17;;;;;;;4.13;2.47;;;25.00;34.20;;;;;;5016608;28;20426;-89
2022/06/22 12:41:09;;;;;;;4.63;3.23;;;25.20;34.00;;;;;;5031766;28;20409;-88
2022/06/22 12:44:06;;;;;;;6.13;2.80;;;25.20;33.40;;;;;;5039437;28;20943;-90
2022/06/22 12:47:07;;;;;;;3.83;2.33;;;25.10;34.00;;;;;;5057456;28;20436;-88
2022/06/22 12:49:41;;;;;;;6.53;3.70;;;25.20;31.60;;;;;;5016697;28;20468;-86
2022/06/22 12:52:15;;;;;;;4.80;4.03;;;25.20;31.80;;;;;;5035434;28;20466;-87
2022/06/22 12:54:59;;;;;;;4.13;3.60;;;25.30;33.20;;;;;;5017299;28;20431;-88
2022/06/22 12:57:35;;;;;;;6.17;3.87;;;25.30;33.70;;;;;;5014984;28;20451;-87
2022/06/22 13:00:18;;;;;;;6.80;4.07;;;25.40;33.80;;;;;;5028504;28;20767;-88
2022/06/22 13:02:48;;;;;;;5.60;3.80;;;25.40;33.30;;;;;;5048077;28;20410;-87
2022/06/22 13:05:21;;;;;;;7.27;4.10;;;25.50;32.90;;;;;;5034789;28;20467;-87
2022/06/22 13:08:00;;;;;;;5.43;3.33;;;25.50;32.90;;;;;;5053322;28;20416;-87
2022/06/22 13:10:31;;;;;;;6.00;3.40;;;25.50;33.30;;;;;;5063810;28;20474;-85
2022/06/22 13:13:15;;;;;;;3.60;3.20;;;25.50;33.50;;;;;;5075583;28;20405;-86
2022/06/22 13:15:50;;;;;;;5.10;2.73;;;25.40;33.50;;;;;;5060805;28;20465;-89
2022/06/22 13:18:24;;;;;;;3.13;2.83;;;25.40;33.20;;;;;;5052275;28;20420;-86
2022/06/22 13:21:12;;;;;;;6.67;3.30;;;25.40;32.80;;;;;;5036007;28;20417;-88
2022/06/22 13:23:53;;;;;;;7.43;4.17;;;25.50;33.00;;;;;;5036554;28;20408;-87
2022/06/22 13:26:37;;;;;;;4.43;2.90;;;25.50;32.90;;;;;;5036242;28;20412;-88
2022/06/22 13:29:19;;;;;;;3.43;2.80;;;25.60;33.20;;;;;;5035474;28;20411;-88
2022/06/22 13:31:47;;;;;;;7.17;2.77;;;25.70;31.20;;;;;;5049439;28;20444;-88
2022/06/22 13:34:20;;;;;;;3.60;3.27;;;25.70;30.30;;;;;;5038551;28;20456;-88
2022/06/22 13:37:11;;;;;;;4.07;3.13;;;25.70;31.00;;;;;;5037112;28;20445;-87
2022/06/22 13:40:12;;;;;;;6.23;2.97;;;25.60;32.30;;;;;;5034974;28;20414;-87
2022/06/22 13:43:11;;;;;;;4.73;3.27;;;25.60;32.70;;;;;;5041275;28;20436;-87
2022/06/22 13:45:40;;;;;;;5.60;3.13;;;25.80;32.70;;;;;;5050726;28;20520;-86
2022/06/22 13:48:21;;;;;;;9.13;3.27;;;25.90;32.20;;;;;;5033241;28;20963;-87
2022/06/22 13:53:54;;;;;;;3.23;2.80;;;25.90;31.60;;;;;;5017528;28;20402;-87
2022/06/22 13:56:47;;;;;;;3.67;2.57;;;25.80;32.00;;;;;;5041935;28;20972;-87
2022/06/22 13:59:36;;;;;;;6.80;3.13;;;25.80;32.60;;;;;;5040482;28;20418;-88
2022/06/22 14:02:41;;;;;;;3.23;2.90;;;26.00;32.80;;;;;;5044102;28;20414;-88
2022/06/22 14:05:16;;;;;;;5.90;3.00;;;26.00;32.90;;;;;;5050147;28;20452;-87
2022/06/22 14:07:49;;;;;;;5.57;3.03;;;26.10;33.30;;;;;;5056432;28;20413;-88
2022/06/22 14:10:43;;;;;;;3.60;2.60;;;26.10;33.00;;;;;;5046169;28;20966;-88
2022/06/22 14:13:26;;;;;;;6.23;2.30;;;26.10;32.30;;;;;;5039774;28;20425;-88
2022/06/22 14:16:13;;;;;;;6.20;2.73;;;26.10;32.20;;;;;;5047274;28;20464;-88